Time;durP1;ratioP1;P1;durP2;ratioP2;P2;SDS_P1;SDS_P2;PMS_P1;PMS_P2;Temp;Humidity;BMP_temperature;BMP_pressure;BME280_temperature;BME280_humidity;BME280_pressure;Samples;Min_cycle;Max_cycle;Signal;HPM_P1;HPM_P2
2020/12/14 00:03:18;;;;;;;;;31.25;27.50;;;;;;;;12554090;28;8837;-53
2020/12/14 00:09:19;;;;;;;;;31.50;26.75;;;;;;;;12551956;28;8872;-55
2020/12/14 00:15:20;;;;;;;;;30.75;25.25;;;;;;;;12551989;28;8844;-55
2020/12/14 00:21:22;;;;;;;;;28.50;27.75;;;;;;;;12554285;28;8854;-54
2020/12/14 00:27:23;;;;;;;;;29.75;27.50;;;;;;;;12551481;28;8968;-49
2020/12/14 00:33:25;;;;;;;;;27.25;26.00;;;;;;;;12554026;28;8841;-55
2020/12/14 00:39:27;;;;;;;;;32.00;28.50;;;;;;;;12551505;28;8904;-55
2020/12/14 00:45:29;;;;;;;;;26.50;24.00;;;;;;;;12551123;28;8861;-55
2020/12/14 00:51:31;;;;;;;;;26.75;22.75;;;;;;;;12552882;28;8837;-54
2020/12/14 00:57:32;;;;;;;;;26.75;22.50;;;;;;;;12550347;28;8951;-55
2020/12/14 01:03:34;;;;;;;;;23.00;22.75;;;;;;;;12524787;28;8904;-54
2020/12/14 01:09:35;;;;;;;;;26.00;24.50;;;;;;;;12559283;28;8902;-54
2020/12/14 01:15:37;;;;;;;;;24.50;23.75;;;;;;;;12559514;28;8860;-53
2020/12/14 01:21:38;;;;;;;;;21.00;21.00;;;;;;;;12560566;28;8947;-54
2020/12/14 01:27:39;;;;;;;;;30.25;24.75;;;;;;;;12559146;28;8852;-53
2020/12/14 01:33:42;;;;;;;;;24.50;22.00;;;;;;;;12559511;28;8849;-54
2020/12/14 01:39:43;;;;;;;;;26.50;21.50;;;;;;;;12558193;28;8971;-54
2020/12/14 01:45:45;;;;;;;;;23.50;19.25;;;;;;;;12539912;28;8868;-54
2020/12/14 01:51:46;;;;;;;;;22.00;21.25;;;;;;;;12559859;28;8838;-54
2020/12/14 01:57:48;;;;;;;;;19.00;18.75;;;;;;;;12558066;28;8845;-54
2020/12/14 02:03:49;;;;;;;;;21.50;19.75;;;;;;;;12558903;28;8840;-55
2020/12/14 02:09:54;;;;;;;;;24.75;24.00;;;;;;;;12557734;28;9410;-53
2020/12/14 02:15:55;;;;;;;;;28.00;21.75;;;;;;;;12556458;28;8857;-53
2020/12/14 02:21:57;;;;;;;;;14.75;13.25;;;;;;;;12558565;28;8855;-54
2020/12/14 02:27:59;;;;;;;;;26.50;24.25;;;;;;;;12556004;28;8869;-55
2020/12/14 02:34:01;;;;;;;;;24.75;22.50;;;;;;;;12556043;28;8884;-52
2020/12/14 02:40:04;;;;;;;;;27.00;26.25;;;;;;;;12555491;28;9649;-54
2020/12/14 02:46:05;;;;;;;;;31.00;24.00;;;;;;;;12554653;28;8985;-53
2020/12/14 02:52:08;;;;;;;;;22.75;22.50;;;;;;;;12538843;28;8837;-53
2020/12/14 02:58:09;;;;;;;;;28.75;23.50;;;;;;;;12554444;28;8841;-55
2020/12/14 03:04:11;;;;;;;;;30.00;23.75;;;;;;;;12555437;28;8853;-54
2020/12/14 03:10:12;;;;;;;;;28.75;26.25;;;;;;;;12554674;28;8854;-54
2020/12/14 03:16:13;;;;;;;;;27.25;23.25;;;;;;;;12553594;28;9660;-54
2020/12/14 03:22:15;;;;;;;;;22.75;20.25;;;;;;;;12554819;28;8865;-53
2020/12/14 03:28:16;;;;;;;;;25.75;22.75;;;;;;;;12552018;28;8926;-54
2020/12/14 03:34:18;;;;;;;;;27.75;26.00;;;;;;;;12553588;28;8845;-55
2020/12/14 03:40:19;;;;;;;;;27.50;24.25;;;;;;;;12554630;28;8909;-55
2020/12/14 03:46:24;;;;;;;;;14.25;12.75;;;;;;;;12544611;28;8867;-53
2020/12/14 03:52:26;;;;;;;;;26.50;21.00;;;;;;;;12554186;28;8883;-52
2020/12/14 03:58:27;;;;;;;;;28.00;21.25;;;;;;;;12552322;28;8863;-53
2020/12/14 04:04:28;;;;;;;;;26.75;24.00;;;;;;;;12553359;28;8924;-55
2020/12/14 04:10:30;;;;;;;;;23.25;19.75;;;;;;;;12553876;28;8847;-54
2020/12/14 04:16:31;;;;;;;;;20.75;20.00;;;;;;;;12551800;28;8832;-54
2020/12/14 04:22:33;;;;;;;;;30.00;25.00;;;;;;;;12554702;28;8840;-54
2020/12/14 04:28:35;;;;;;;;;31.75;28.25;;;;;;;;12551925;28;8848;-54
2020/12/14 04:34:36;;;;;;;;;29.75;28.50;;;;;;;;12552047;28;8887;-54
2020/12/14 04:40:38;;;;;;;;;30.00;30.00;;;;;;;;12558227;28;8872;-54
2020/12/14 04:46:42;;;;;;;;;22.25;21.50;;;;;;;;12561060;28;8876;-54
2020/12/14 04:52:44;;;;;;;;;25.00;22.25;;;;;;;;12562002;28;8872;-53
2020/12/14 04:58:46;;;;;;;;;25.50;19.75;;;;;;;;12559709;28;8861;-54
2020/12/14 05:04:47;;;;;;;;;25.75;23.50;;;;;;;;12995198;22;8870;-51
2020/12/14 05:10:48;;;;;;;;;33.75;25.25;;;;;;;;12571344;28;8955;-47
2020/12/14 05:16:50;;;;;;;;;28.75;25.25;;;;;;;;12565441;28;8848;-47
2020/12/14 05:23:00;;;;;;;;;28.25;24.50;;;;;;;;12567106;28;8845;-47
2020/12/14 05:29:01;;;;;;;;;25.00;22.75;;;;;;;;12564006;28;8825;-51
2020/12/14 05:35:10;;;;;;;;;32.25;30.75;;;;;;;;12562467;28;8968;-52
2020/12/14 05:41:12;;;;;;;;;35.75;32.75;;;;;;;;12563503;28;8844;-49
2020/12/14 05:47:30;;;;;;;;;39.75;33.75;;;;;;;;12561742;28;8886;-47
2020/12/14 05:53:37;;;;;;;;;40.00;36.50;;;;;;;;12560241;28;8865;-46
2020/12/14 05:59:39;;;;;;;;;36.25;32.75;;;;;;;;12563129;28;8841;-47
2020/12/14 06:05:41;;;;;;;;;50.50;40.25;;;;;;;;12541547;28;8870;-48
2020/12/14 06:11:51;;;;;;;;;54.75;44.50;;;;;;;;12533914;28;8933;-48
2020/12/14 06:17:55;;;;;;;;;47.75;38.50;;;;;;;;12531621;28;8969;-49
2020/12/14 06:23:59;;;;;;;;;49.00;43.00;;;;;;;;12531570;28;8844;-49
2020/12/14 06:30:01;;;;;;;;;54.50;43.75;;;;;;;;12506842;28;8854;-52
2020/12/14 06:36:16;;;;;;;;;55.00;44.25;;;;;;;;12532071;28;8894;-54
2020/12/14 06:42:17;;;;;;;;;45.75;42.50;;;;;;;;12532579;28;8852;-54
2020/12/14 06:48:35;;;;;;;;;49.25;44.25;;;;;;;;12530987;28;8840;-52
2020/12/14 06:54:46;;;;;;;;;55.75;45.00;;;;;;;;12524998;28;8850;-51
2020/12/14 07:00:48;;;;;;;;;64.25;47.50;;;;;;;;12512425;28;8871;-50
2020/12/14 07:06:50;;;;;;;;;47.25;41.50;;;;;;;;12529090;28;8914;-52
2020/12/14 07:12:52;;;;;;;;;51.50;43.50;;;;;;;;12530043;28;8836;-47
2020/12/14 07:19:12;;;;;;;;;47.25;43.50;;;;;;;;12529980;28;8942;-50
2020/12/14 07:25:21;;;;;;;;;50.00;43.00;;;;;;;;12530260;28;8879;-51
2020/12/14 07:31:26;;;;;;;;;54.50;46.25;;;;;;;;12524258;28;8843;-50
2020/12/14 07:37:28;;;;;;;;;52.25;43.75;;;;;;;;12513633;28;8897;-50
2020/12/14 07:43:29;;;;;;;;;62.00;48.00;;;;;;;;12521167;28;8932;-49
2020/12/14 07:49:31;;;;;;;;;60.75;48.00;;;;;;;;12521202;28;8891;-50
2020/12/14 07:55:36;;;;;;;;;64.00;51.00;;;;;;;;12519259;28;8848;-48
2020/12/14 08:01:39;;;;;;;;;60.00;47.75;;;;;;;;12517395;28;9615;-47
2020/12/14 08:07:50;;;;;;;;;53.00;45.75;;;;;;;;12514319;28;8836;-51
2020/12/14 08:13:52;;;;;;;;;53.75;45.00;;;;;;;;12526525;28;10127;-49
2020/12/14 08:19:54;;;;;;;;;54.00;43.50;;;;;;;;12529680;28;8860;-48
2020/12/14 08:25:56;;;;;;;;;62.00;50.00;;;;;;;;12528391;28;9603;-47
2020/12/14 08:32:00;;;;;;;;;62.75;50.50;;;;;;;;12526627;28;8859;-53
2020/12/14 08:38:05;;;;;;;;;59.50;49.75;;;;;;;;12527904;28;8840;-48
2020/12/14 08:44:18;;;;;;;;;64.50;51.75;;;;;;;;12524329;28;8882;-47
2020/12/14 08:50:19;;;;;;;;;64.50;51.00;;;;;;;;12525938;28;8913;-50
2020/12/14 08:56:23;;;;;;;;;61.75;50.75;;;;;;;;12526367;28;8876;-54
2020/12/14 09:02:24;;;;;;;;;61.00;49.75;;;;;;;;12530228;28;8908;-50
2020/12/14 09:08:26;;;;;;;;;61.00;50.25;;;;;;;;12512705;28;8867;-51
2020/12/14 09:14:30;;;;;;;;;58.25;48.00;;;;;;;;12507878;28;8859;-52
2020/12/14 09:20:33;;;;;;;;;53.50;46.00;;;;;;;;12528641;28;8931;-52
2020/12/14 09:26:34;;;;;;;;;59.25;44.50;;;;;;;;12516453;28;8855;-48
2020/12/14 09:32:36;;;;;;;;;73.75;59.00;;;;;;;;12522970;28;8885;-49
2020/12/14 09:38:37;;;;;;;;;68.25;54.00;;;;;;;;12528854;28;8963;-57
2020/12/14 09:44:39;;;;;;;;;73.75;56.25;;;;;;;;12527975;28;9051;-54
2020/12/14 09:50:40;;;;;;;;;69.00;55.75;;;;;;;;12528039;28;8868;-50
2020/12/14 09:56:42;;;;;;;;;63.50;51.25;;;;;;;;12530395;28;8848;-52
2020/12/14 10:02:44;;;;;;;;;59.00;46.25;;;;;;;;12528030;28;8906;-51
2020/12/14 10:08:46;;;;;;;;;58.75;48.75;;;;;;;;12528525;28;8851;-48
2020/12/14 10:14:49;;;;;;;;;59.75;47.25;;;;;;;;12529032;28;9404;-49
2020/12/14 10:20:50;;;;;;;;;67.50;54.75;;;;;;;;12528015;28;8967;-50
2020/12/14 10:26:52;;;;;;;;;73.50;56.75;;;;;;;;12528683;28;8868;-49
2020/12/14 10:32:54;;;;;;;;;68.50;55.75;;;;;;;;12527604;28;8938;-52
2020/12/14 10:38:56;;;;;;;;;74.00;58.50;;;;;;;;12527266;28;8840;-52
2020/12/14 10:45:00;;;;;;;;;71.00;56.75;;;;;;;;12523893;28;8843;-50
2020/12/14 10:51:02;;;;;;;;;67.25;57.00;;;;;;;;12519878;28;8886;-56
2020/12/14 10:57:03;;;;;;;;;66.25;54.75;;;;;;;;12521436;28;9628;-54
2020/12/14 11:03:05;;;;;;;;;74.00;58.00;;;;;;;;12515323;28;8845;-50
2020/12/14 11:09:06;;;;;;;;;73.00;56.50;;;;;;;;12517942;28;8859;-48
2020/12/14 11:15:09;;;;;;;;;72.50;54.75;;;;;;;;12517745;28;8876;-48
2020/12/14 11:21:12;;;;;;;;;72.50;54.75;;;;;;;;12524403;28;8852;-51
2020/12/14 11:27:15;;;;;;;;;70.25;56.25;;;;;;;;12522885;28;9636;-52
2020/12/14 11:33:16;;;;;;;;;74.75;59.50;;;;;;;;12515527;28;8832;-54
2020/12/14 11:39:18;;;;;;;;;74.75;60.25;;;;;;;;12518236;28;8828;-53
2020/12/14 11:45:19;;;;;;;;;68.25;55.00;;;;;;;;12519753;28;8869;-56
2020/12/14 11:51:21;;;;;;;;;71.00;52.25;;;;;;;;12517627;28;9639;-48
2020/12/14 11:57:22;;;;;;;;;65.25;53.25;;;;;;;;12524797;28;8840;-48
2020/12/14 12:03:25;;;;;;;;;68.75;55.75;;;;;;;;12516921;28;8928;-48
2020/12/14 12:09:26;;;;;;;;;65.75;52.75;;;;;;;;12523328;28;8863;-51
2020/12/14 12:15:27;;;;;;;;;63.75;49.50;;;;;;;;12521454;28;8950;-49
2020/12/14 12:21:29;;;;;;;;;69.75;53.75;;;;;;;;12515676;28;9650;-47
2020/12/14 12:27:30;;;;;;;;;64.50;51.25;;;;;;;;12512509;28;8878;-53
2020/12/14 12:33:32;;;;;;;;;65.50;51.75;;;;;;;;12508208;28;9576;-49
2020/12/14 12:39:34;;;;;;;;;59.75;50.50;;;;;;;;12516327;28;8864;-53
2020/12/14 12:45:35;;;;;;;;;66.00;53.75;;;;;;;;12497803;28;8863;-50
2020/12/14 12:51:37;;;;;;;;;61.50;50.50;;;;;;;;12522661;28;8848;-53
2020/12/14 12:57:38;;;;;;;;;58.75;46.50;;;;;;;;12515098;28;8890;-55
2020/12/14 13:03:40;;;;;;;;;67.50;53.50;;;;;;;;12526954;28;8828;-49
2020/12/14 13:09:41;;;;;;;;;58.25;49.75;;;;;;;;12507056;28;8882;-51
2020/12/14 13:15:47;;;;;;;;;59.00;45.25;;;;;;;;12521769;28;8884;-52
2020/12/14 13:21:49;;;;;;;;;59.00;48.75;;;;;;;;12521772;28;8855;-48
2020/12/14 13:27:50;;;;;;;;;65.00;52.00;;;;;;;;12517582;28;8836;-49
2020/12/14 13:33:52;;;;;;;;;59.75;47.00;;;;;;;;12529782;28;9371;-48
2020/12/14 13:39:54;;;;;;;;;60.75;47.00;;;;;;;;12519388;28;10176;-51
2020/12/14 13:45:55;;;;;;;;;54.00;44.00;;;;;;;;12528310;28;8836;-50
2020/12/14 13:51:57;;;;;;;;;56.50;46.50;;;;;;;;12528469;28;8828;-51
2020/12/14 13:57:59;;;;;;;;;66.75;53.50;;;;;;;;12526272;28;8848;-50
2020/12/14 14:04:00;;;;;;;;;62.75;51.00;;;;;;;;12521297;28;8844;-50
2020/12/14 14:10:04;;;;;;;;;53.50;44.00;;;;;;;;12517037;28;8866;-48
2020/12/14 14:16:06;;;;;;;;;59.75;46.75;;;;;;;;12530254;28;8840;-46
2020/12/14 14:22:08;;;;;;;;;66.50;52.75;;;;;;;;12523718;28;8828;-50
2020/12/14 14:28:10;;;;;;;;;62.50;48.75;;;;;;;;12523776;28;8844;-51
2020/12/14 14:34:12;;;;;;;;;62.50;51.50;;;;;;;;12516180;28;8863;-49
2020/12/14 14:40:14;;;;;;;;;74.50;59.75;;;;;;;;12528063;28;8876;-52
2020/12/14 14:46:16;;;;;;;;;60.25;47.00;;;;;;;;12524290;28;8991;-52
2020/12/14 14:52:17;;;;;;;;;64.00;50.25;;;;;;;;12526203;28;8839;-52
2020/12/14 14:58:18;;;;;;;;;62.50;52.25;;;;;;;;12525701;28;8875;-52
2020/12/14 15:04:24;;;;;;;;;63.75;51.50;;;;;;;;12528905;28;8851;-54
2020/12/14 15:10:25;;;;;;;;;57.00;46.25;;;;;;;;12505332;28;8944;-52
2020/12/14 15:16:27;;;;;;;;;58.75;46.75;;;;;;;;12531886;28;8848;-55
2020/12/14 15:22:28;;;;;;;;;57.50;43.00;;;;;;;;12529667;28;8836;-53
2020/12/14 15:28:30;;;;;;;;;48.50;42.50;;;;;;;;12529313;28;8958;-52
2020/12/14 15:34:31;;;;;;;;;59.75;46.75;;;;;;;;12530544;28;8848;-54
2020/12/14 15:40:32;;;;;;;;;59.00;48.75;;;;;;;;12529828;28;8852;-50
2020/12/14 15:46:34;;;;;;;;;60.75;50.75;;;;;;;;12529818;28;8900;-52
2020/12/14 15:52:35;;;;;;;;;59.25;49.25;;;;;;;;12529010;28;8848;-52
2020/12/14 15:58:37;;;;;;;;;52.50;47.00;;;;;;;;12528784;28;8839;-52
2020/12/14 16:04:40;;;;;;;;;60.25;48.75;;;;;;;;12529524;28;8962;-48
2020/12/14 16:10:41;;;;;;;;;68.00;55.25;;;;;;;;12529133;28;9722;-51
2020/12/14 16:16:43;;;;;;;;;71.25;56.50;;;;;;;;12528943;28;8848;-51
2020/12/14 16:22:44;;;;;;;;;67.75;56.00;;;;;;;;12528569;28;8856;-50
2020/12/14 16:28:46;;;;;;;;;56.75;43.50;;;;;;;;12528039;28;8909;-48
2020/12/14 16:34:47;;;;;;;;;62.50;51.25;;;;;;;;12533059;28;8840;-52
2020/12/14 16:40:48;;;;;;;;;65.25;52.75;;;;;;;;12536648;28;9388;-53
2020/12/14 16:46:52;;;;;;;;;63.75;52.25;;;;;;;;12538287;28;8844;-50
2020/12/14 16:52:54;;;;;;;;;63.50;47.00;;;;;;;;12537110;28;8884;-50
2020/12/14 16:58:57;;;;;;;;;61.75;49.50;;;;;;;;12536309;28;8866;-50
2020/12/14 17:05:05;;;;;;;;;56.75;47.00;;;;;;;;12536872;28;8844;-50
2020/12/14 17:11:09;;;;;;;;;65.00;49.00;;;;;;;;12535322;28;8827;-49
2020/12/14 17:17:10;;;;;;;;;52.00;44.25;;;;;;;;12536500;28;8884;-52
2020/12/14 17:23:15;;;;;;;;;54.50;44.25;;;;;;;;12536454;28;8848;-50
2020/12/14 17:29:17;;;;;;;;;57.50;46.25;;;;;;;;12535518;28;8862;-49
2020/12/14 17:35:18;;;;;;;;;52.00;44.25;;;;;;;;12536571;28;8832;-52
2020/12/14 17:41:21;;;;;;;;;46.75;41.50;;;;;;;;12534195;28;8832;-51
2020/12/14 17:47:22;;;;;;;;;62.50;48.00;;;;;;;;12525558;28;8855;-52
2020/12/14 17:53:24;;;;;;;;;57.25;46.75;;;;;;;;12500482;28;8891;-48
2020/12/14 17:59:37;;;;;;;;;49.50;44.75;;;;;;;;12533358;28;8874;-51
2020/12/14 18:05:40;;;;;;;;;55.00;45.25;;;;;;;;12534291;28;8860;-49
2020/12/14 18:11:41;;;;;;;;;48.50;43.25;;;;;;;;12532774;28;8840;-49
2020/12/14 18:17:43;;;;;;;;;43.50;39.25;;;;;;;;12534528;28;8867;-50
2020/12/14 18:23:46;;;;;;;;;44.50;40.75;;;;;;;;12533150;28;8856;-50
2020/12/14 18:30:04;;;;;;;;;49.25;40.75;;;;;;;;12531954;28;8875;-52
2020/12/14 21:28:08;;;;;;;;;56.00;46.50;;;;;;;;12536561;28;8824;-48
2020/12/14 21:34:10;;;;;;;;;51.50;45.75;;;;;;;;12535431;28;8832;-45
2020/12/14 21:40:11;;;;;;;;;52.00;45.25;;;;;;;;12535637;28;8958;-52
2020/12/14 21:46:13;;;;;;;;;51.00;42.25;;;;;;;;12534888;28;8931;-48
2020/12/14 21:52:15;;;;;;;;;50.75;44.75;;;;;;;;12533880;28;8856;-46
2020/12/14 21:58:16;;;;;;;;;61.75;44.50;;;;;;;;12534814;28;8851;-49
2020/12/14 22:04:17;;;;;;;;;48.25;43.00;;;;;;;;12532609;28;8867;-47
2020/12/14 22:10:19;;;;;;;;;56.50;43.75;;;;;;;;12533997;28;8840;-49
2020/12/14 22:16:22;;;;;;;;;46.75;41.75;;;;;;;;12533213;28;8840;-51
2020/12/14 22:22:24;;;;;;;;;52.50;42.00;;;;;;;;12532653;28;8840;-49
2020/12/14 22:28:26;;;;;;;;;54.75;45.00;;;;;;;;12534443;28;8856;-50
2020/12/14 22:34:27;;;;;;;;;52.00;43.00;;;;;;;;12530972;28;8847;-47
2020/12/14 22:40:28;;;;;;;;;52.75;46.25;;;;;;;;12533154;28;8823;-52
2020/12/14 22:46:30;;;;;;;;;52.00;43.00;;;;;;;;12531553;28;8840;-46
2020/12/14 22:52:31;;;;;;;;;56.25;45.25;;;;;;;;12530969;28;8928;-47
2020/12/14 22:58:33;;;;;;;;;50.00;44.00;;;;;;;;12532414;28;8847;-46
2020/12/14 23:04:34;;;;;;;;;57.00;44.25;;;;;;;;12530156;28;8852;-49
2020/12/14 23:10:36;;;;;;;;;48.25;43.25;;;;;;;;12530383;28;8932;-47
2020/12/14 23:16:37;;;;;;;;;55.00;45.50;;;;;;;;12530123;28;9760;-46
2020/12/14 23:22:39;;;;;;;;;55.50;46.00;;;;;;;;12530097;28;8836;-46
2020/12/14 23:28:41;;;;;;;;;52.00;46.25;;;;;;;;12530680;28;8828;-50
2020/12/14 23:34:43;;;;;;;;;54.25;46.50;;;;;;;;12529938;28;8856;-49
2020/12/14 23:40:45;;;;;;;;;53.50;44.00;;;;;;;;12528733;28;8869;-51
2020/12/14 23:46:46;;;;;;;;;51.75;44.00;;;;;;;;12530036;28;8871;-51
2020/12/14 23:52:47;;;;;;;;;54.50;44.00;;;;;;;;12528757;28;8878;-46
2020/12/14 23:58:49;;;;;;;;;61.75;47.00;;;;;;;;12529965;28;8820;-46
